Nanty Glo, Pennsylvania
Current Conditions -  °F | °C
As of 10:54 PM on Tuesday 25 Nov 2014 (Local Time) from KJST Reporting Station
Clear Clear  
Wind Chill: 30°   Ceiling: Unl
Heat Index: 30°   Visibility: 10mi
Dew Point: 23°   Wind: 3mph
Humidity: 75%   Direction: 360°N
Pressure: 30.11"   Gusts: NA
Location:  40.47°N, 78.83°W
Report Text: KJST 260354Z AUTO 36003KT 10SM CLR M01/M05 A3011 RMK AO2 SLP216 T10111050
Loading
Personal Weather Stations






























Interactive Weather Map New forecast layout! Learn more

10-Day Weather Forecast

Advertisements
Track Severe Weather on mobile